createdAt,value
2019-05-30T00:00:17.779Z,3.07
2019-05-30T00:02:46.265Z,3.20
2019-05-30T00:05:17.936Z,3.07
2019-05-30T00:07:46.645Z,3.00
2019-05-30T00:10:18.092Z,3.90
2019-05-30T00:12:47.912Z,5.10
2019-05-30T00:15:18.223Z,3.63
2019-05-30T00:17:47.104Z,3.33
2019-05-30T00:20:19.049Z,3.37
2019-05-30T00:22:49.309Z,7.87
2019-05-30T00:25:17.923Z,4.70
2019-05-30T00:27:49.745Z,4.67
2019-05-30T00:30:24.316Z,3.87
2019-05-30T00:32:48.896Z,6.43
2019-05-30T00:35:19.014Z,4.63
2019-05-30T00:37:49.123Z,3.93
2019-05-30T00:40:18.926Z,4.70
2019-05-30T00:42:53.460Z,5.00
2019-05-30T00:45:25.198Z,4.03
2019-05-30T00:47:58.077Z,6.10
2019-05-30T00:50:27.197Z,6.87
2019-05-30T00:52:58.741Z,4.37
2019-05-30T00:55:27.848Z,4.53
2019-05-30T00:57:58.505Z,4.37
2019-05-30T01:00:42.841Z,3.87
2019-05-30T01:03:01.360Z,4.60
2019-05-30T01:05:29.544Z,8.13
2019-05-30T01:07:58.765Z,6.03
2019-05-30T01:10:27.516Z,5.57
2019-05-30T01:12:56.843Z,5.20
2019-05-30T01:15:25.524Z,5.47
2019-05-30T01:17:55.403Z,6.17
2019-05-30T01:20:24.039Z,5.07
2019-05-30T01:22:56.961Z,4.83
2019-05-30T01:25:25.576Z,4.50
2019-05-30T01:27:54.208Z,4.90
2019-05-30T01:30:23.223Z,5.00
2019-05-30T01:32:53.118Z,5.03
2019-05-30T01:35:23.313Z,6.30
2019-05-30T01:37:52.270Z,4.70
2019-05-30T01:40:21.001Z,5.10
2019-05-30T01:42:51.078Z,8.43
2019-05-30T01:45:20.848Z,11.23
2019-05-30T01:47:49.721Z,5.43
2019-05-30T01:50:20.110Z,4.03
2019-05-30T01:52:48.794Z,5.97
2019-05-30T01:55:17.743Z,5.10
2019-05-30T01:57:47.857Z,4.27
2019-05-30T02:00:21.347Z,6.83
2019-05-30T02:02:47.437Z,5.40
2019-05-30T02:05:18.204Z,6.73
2019-05-30T02:07:48.328Z,5.00
2019-05-30T02:10:17.101Z,5.53
2019-05-30T02:12:49.592Z,6.17
2019-05-30T02:15:19.864Z,7.50
2019-05-30T02:17:48.765Z,4.80
2019-05-30T02:20:19.317Z,4.90
2019-05-30T02:22:54.146Z,6.53
2019-05-30T02:25:24.212Z,5.47
2019-05-30T02:27:53.578Z,5.57
2019-05-30T02:30:25.289Z,7.40
2019-05-30T02:32:55.028Z,5.30
2019-05-30T02:35:25.129Z,5.40
2019-05-30T02:37:55.230Z,5.63
2019-05-30T02:40:26.836Z,5.13
2019-05-30T02:42:55.754Z,5.67
2019-05-30T02:45:24.466Z,5.70
2019-05-30T02:47:53.111Z,4.87
2019-05-30T02:50:21.872Z,5.67
2019-05-30T02:52:51.930Z,7.73
2019-05-30T02:55:21.942Z,5.93
2019-05-30T02:57:52.500Z,5.63
2019-05-30T03:00:32.471Z,5.73
2019-05-30T03:03:01.982Z,4.50
2019-05-30T03:05:32.761Z,4.40
2019-05-30T03:08:04.947Z,7.17
2019-05-30T03:10:36.497Z,5.73
2019-05-30T03:13:06.798Z,10.87
2019-05-30T03:15:36.862Z,7.93
2019-05-30T03:18:08.045Z,5.73
2019-05-30T03:20:38.358Z,5.10
2019-05-30T03:23:10.446Z,13.00
2019-05-30T03:25:39.626Z,5.47
2019-05-30T03:28:11.206Z,5.03
2019-05-30T03:30:39.929Z,5.20
2019-05-30T03:33:24.463Z,5.87
2019-05-30T03:35:43.019Z,6.23
2019-05-30T03:38:12.293Z,7.77
2019-05-30T03:40:40.855Z,5.23
2019-05-30T03:43:11.736Z,5.47
2019-05-30T03:45:42.195Z,6.20
2019-05-30T03:48:14.254Z,6.20
2019-05-30T03:50:48.954Z,5.00
2019-05-30T03:53:17.887Z,5.33
2019-05-30T03:55:50.295Z,5.50
2019-05-30T03:58:33.789Z,5.03
2019-05-30T04:01:05.916Z,5.20
2019-05-30T04:03:49.212Z,5.87
2019-05-30T04:06:22.092Z,6.37
2019-05-30T04:08:53.829Z,9.77
2019-05-30T04:11:26.017Z,5.03
2019-05-30T04:13:57.188Z,7.50
2019-05-30T04:16:28.950Z,7.00
2019-05-30T04:18:57.598Z,5.87
2019-05-30T04:21:29.067Z,6.53
2019-05-30T04:23:57.756Z,5.00
2019-05-30T04:26:27.705Z,5.83
2019-05-30T04:28:59.426Z,7.60
2019-05-30T04:31:31.182Z,6.73
2019-05-30T04:34:03.426Z,7.00
2019-05-30T04:36:32.096Z,14.77
2019-05-30T04:39:01.025Z,5.80
2019-05-30T04:41:31.186Z,15.43
2019-05-30T04:44:05.967Z,7.43
2019-05-30T04:46:34.615Z,5.43
2019-05-30T04:49:03.281Z,5.93
2019-05-30T04:51:31.930Z,6.80
2019-05-30T04:54:00.584Z,6.33
2019-05-30T04:56:29.255Z,5.97
2019-05-30T04:58:57.939Z,6.50
2019-05-30T05:01:26.809Z,5.50
2019-05-30T05:03:55.824Z,6.57
2019-05-30T05:06:24.481Z,5.90
2019-05-30T05:08:53.405Z,9.00
2019-05-30T05:11:25.228Z,6.27
2019-05-30T05:13:53.566Z,5.90
2019-05-30T05:16:35.039Z,9.90
2019-05-30T05:18:54.226Z,5.57
2019-05-30T05:21:23.177Z,6.70
2019-05-30T05:23:51.829Z,7.40
2019-05-30T05:26:21.562Z,6.73
2019-05-30T05:28:50.306Z,6.60
2019-05-30T05:31:20.396Z,5.80
2019-05-30T05:33:56.860Z,6.60
2019-05-30T05:36:21.579Z,5.97
2019-05-30T05:38:51.799Z,6.73
2019-05-30T05:41:20.448Z,6.17
2019-05-30T05:43:49.080Z,4.47
2019-05-30T05:46:20.314Z,5.00
2019-05-30T05:48:49.266Z,5.03
2019-05-30T05:51:18.570Z,5.00
2019-05-30T05:53:47.368Z,5.10
2019-05-30T05:56:16.930Z,5.40
2019-05-30T05:58:45.629Z,5.13
2019-05-30T06:01:17.131Z,5.20
2019-05-30T06:03:46.024Z,5.03
2019-05-30T06:06:17.144Z,5.07
2019-05-30T06:08:45.875Z,6.10
2019-05-30T06:11:14.923Z,6.83
2019-05-30T06:13:43.574Z,8.20
2019-05-30T06:16:18.492Z,10.23
2019-05-30T06:18:47.168Z,5.47
2019-05-30T06:21:17.234Z,4.93
2019-05-30T06:23:49.680Z,7.43
2019-05-30T06:26:19.817Z,4.33
2019-05-30T06:28:48.535Z,6.70
2019-05-30T06:31:18.765Z,5.30
2019-05-30T06:33:47.651Z,4.53
2019-05-30T06:36:18.784Z,9.10
2019-05-30T06:38:47.843Z,5.70
2019-05-30T06:41:17.773Z,4.50
2019-05-30T06:43:47.683Z,10.60
2019-05-30T06:46:16.347Z,4.70
2019-05-30T06:48:44.975Z,5.50
2019-05-30T06:51:14.616Z,4.60
2019-05-30T06:53:43.532Z,5.17
2019-05-30T06:56:13.723Z,5.13
2019-05-30T06:58:48.857Z,4.87
2019-05-30T07:01:13.067Z,5.60
2019-05-30T07:03:41.894Z,5.77
2019-05-30T07:06:14.053Z,5.17
2019-05-30T07:08:43.078Z,6.77
2019-05-30T07:11:12.378Z,9.47
2019-05-30T07:13:41.073Z,9.73
2019-05-30T07:16:09.773Z,10.43
2019-05-30T07:18:38.433Z,5.20
2019-05-30T07:21:07.166Z,4.23
2019-05-30T07:23:39.209Z,4.13
2019-05-30T07:26:06.697Z,5.17
2019-05-30T07:28:35.364Z,13.90
2019-05-30T07:31:06.790Z,5.90
2019-05-30T07:33:36.459Z,5.67
2019-05-30T07:36:05.510Z,5.77
2019-05-30T07:38:35.328Z,8.60
2019-05-30T07:41:04.011Z,9.03
2019-05-30T07:43:35.256Z,4.63
2019-05-30T07:46:04.169Z,4.80
2019-05-30T07:48:36.082Z,4.20
2019-05-30T07:51:07.636Z,5.30
2019-05-30T07:53:36.331Z,5.17
2019-05-30T07:56:08.316Z,7.37
2019-05-30T07:58:37.378Z,4.33
2019-05-30T08:01:07.615Z,4.70
2019-05-30T08:03:36.270Z,3.63
2019-05-30T08:06:06.221Z,5.73
2019-05-30T08:08:38.112Z,3.30
2019-05-30T08:11:10.082Z,3.57
2019-05-30T08:13:40.459Z,7.60
2019-05-30T08:16:10.350Z,5.27
2019-05-30T08:18:42.099Z,6.23
2019-05-30T08:21:12.088Z,9.20
2019-05-30T08:23:41.004Z,5.70
2019-05-30T08:26:12.935Z,5.50
2019-05-30T08:28:44.700Z,6.77
2019-05-30T08:31:14.291Z,7.80
2019-05-30T08:33:46.620Z,10.83
2019-05-30T08:36:13.597Z,6.37
2019-05-30T08:38:43.425Z,8.70
2019-05-30T08:41:14.940Z,7.80
2019-05-30T08:43:45.319Z,9.03
2019-05-30T08:46:13.968Z,6.07
2019-05-30T08:48:43.837Z,6.50
2019-05-30T08:51:14.341Z,11.20
2019-05-30T08:53:43.012Z,11.63
2019-05-30T08:56:11.663Z,8.87
2019-05-30T08:58:41.698Z,7.77
2019-05-30T09:01:10.400Z,12.10
2019-05-30T09:03:40.130Z,7.77
2019-05-30T09:06:08.827Z,8.53
2019-05-30T09:08:39.949Z,14.93
2019-05-30T09:11:11.461Z,8.97
2019-05-30T09:13:44.509Z,9.10
2019-05-30T09:16:13.271Z,9.33
2019-05-30T09:18:43.104Z,11.07
2019-05-30T09:21:12.412Z,11.80
2019-05-30T09:23:42.248Z,12.10
2019-05-30T09:26:14.266Z,9.30
2019-05-30T09:28:44.279Z,9.03
2019-05-30T09:31:14.357Z,10.63
2019-05-30T09:33:44.721Z,16.50
2019-05-30T09:36:14.044Z,17.90
2019-05-30T09:38:45.497Z,47.23
2019-05-30T09:41:14.424Z,28.47
2019-05-30T09:43:44.620Z,25.13
2019-05-30T09:46:13.737Z,22.20
2019-05-30T09:48:43.212Z,27.87
2019-05-30T09:51:12.292Z,22.43
2019-05-30T09:53:42.752Z,30.07
2019-05-30T09:56:12.447Z,39.50
2019-05-30T09:58:42.266Z,25.17
2019-05-30T10:01:12.964Z,25.77
2019-05-30T10:03:41.983Z,22.23
2019-05-30T10:06:28.895Z,26.97
2019-05-30T10:08:49.611Z,39.37
2019-05-30T10:11:21.497Z,27.77
2019-05-30T10:13:52.921Z,31.47
2019-05-30T10:16:23.113Z,34.73
2019-05-30T10:18:52.819Z,36.87
2019-05-30T10:21:23.036Z,29.27
2019-05-30T10:23:53.717Z,51.73
2019-05-30T10:26:23.787Z,32.97
2019-05-30T10:28:54.150Z,33.30
2019-05-30T10:31:23.067Z,31.80
2019-05-30T10:33:53.297Z,32.33
2019-05-30T10:36:22.301Z,38.97
2019-05-30T10:38:53.803Z,31.30
2019-05-30T10:41:22.571Z,39.87
2019-05-30T10:43:51.278Z,33.50
2019-05-30T10:46:20.009Z,34.47
2019-05-30T10:48:49.129Z,42.43
2019-05-30T10:51:19.582Z,33.23
2019-05-30T10:53:49.034Z,36.67
2019-05-30T10:56:19.367Z,36.70
2019-05-30T10:58:48.319Z,33.20
2019-05-30T11:01:17.052Z,34.47
2019-05-30T11:03:48.689Z,33.83
2019-05-30T11:06:27.105Z,25.43
2019-05-30T11:08:57.718Z,32.00
2019-05-30T11:11:26.524Z,25.40
2019-05-30T11:13:57.302Z,27.80
2019-05-30T11:16:26.102Z,25.80
2019-05-30T11:18:56.184Z,27.07
2019-05-30T11:21:24.904Z,24.40
2019-05-30T11:23:54.433Z,25.57
2019-05-30T11:26:24.466Z,29.47
2019-05-30T11:28:54.690Z,29.87
2019-05-30T11:31:23.638Z,23.27
2019-05-30T11:33:54.976Z,25.40
2019-05-30T11:36:24.939Z,28.03
2019-05-30T11:38:53.735Z,21.63
2019-05-30T11:41:22.407Z,25.27
2019-05-30T11:43:51.518Z,26.50
2019-05-30T11:46:21.432Z,27.03
2019-05-30T11:48:53.682Z,19.60
2019-05-30T11:51:22.678Z,18.77
2019-05-30T11:53:55.824Z,21.50
2019-05-30T11:56:25.594Z,23.60
2019-05-30T11:58:55.987Z,20.60
2019-05-30T12:01:26.260Z,19.97
2019-05-30T12:03:54.937Z,19.47
2019-05-30T12:06:26.566Z,23.70
2019-05-30T12:08:55.258Z,23.87
2019-05-30T12:11:23.945Z,17.57
2019-05-30T12:13:55.136Z,18.60
2019-05-30T12:16:25.078Z,15.13
2019-05-30T12:18:53.982Z,17.10
2019-05-30T12:21:23.851Z,23.60
2019-05-30T12:23:54.467Z,16.00
2019-05-30T12:26:24.526Z,16.27
2019-05-30T12:28:54.116Z,13.90
2019-05-30T12:31:24.559Z,12.40
2019-05-30T12:33:54.227Z,10.90
2019-05-30T12:36:23.131Z,13.97
2019-05-30T12:38:54.233Z,13.40
2019-05-30T12:41:24.563Z,12.60
2019-05-30T12:43:53.300Z,12.83
2019-05-30T12:46:23.447Z,12.37
2019-05-30T12:48:53.347Z,13.67
2019-05-30T12:51:21.983Z,11.80
2019-05-30T12:53:54.347Z,19.93
2019-05-30T12:56:24.350Z,11.43
2019-05-30T12:58:54.750Z,9.90
2019-05-30T13:01:27.173Z,11.73
2019-05-30T13:03:54.793Z,10.60
2019-05-30T13:06:26.572Z,10.30
2019-05-30T13:08:55.281Z,17.93
2019-05-30T13:11:24.235Z,9.43
2019-05-30T13:13:55.073Z,10.77
2019-05-30T13:16:24.311Z,9.67
2019-05-30T13:18:54.136Z,10.00
2019-05-30T13:21:23.934Z,11.80
2019-05-30T13:23:53.847Z,12.80
2019-05-30T13:26:23.792Z,9.87
2019-05-30T13:28:54.096Z,12.30
2019-05-30T13:31:23.007Z,11.97
2019-05-30T13:33:51.927Z,9.93
2019-05-30T13:36:22.168Z,11.00
2019-05-30T13:38:52.131Z,12.80
2019-05-30T13:41:22.097Z,10.47
2019-05-30T13:43:52.141Z,11.30
2019-05-30T13:46:22.865Z,10.97
2019-05-30T13:48:51.519Z,9.30
2019-05-30T13:51:23.175Z,9.40
2019-05-30T13:53:53.153Z,9.30
2019-05-30T13:56:23.281Z,16.87
2019-05-30T13:58:51.979Z,11.97
2019-05-30T14:01:20.717Z,9.77
2019-05-30T14:03:50.730Z,10.47
2019-05-30T14:06:19.490Z,11.33
2019-05-30T14:08:51.029Z,9.07
2019-05-30T14:11:19.675Z,9.00
2019-05-30T14:13:51.277Z,10.97
2019-05-30T14:16:19.980Z,29.47
2019-05-30T14:18:48.637Z,11.30
2019-05-30T14:21:17.336Z,9.60
2019-05-30T14:23:49.064Z,13.40
2019-05-30T14:26:17.716Z,9.47
2019-05-30T14:28:46.380Z,10.07
2019-05-30T14:31:15.174Z,12.83
2019-05-30T14:33:43.811Z,8.77
2019-05-30T14:36:14.653Z,10.90
2019-05-30T14:38:57.030Z,13.30
2019-05-30T14:41:14.310Z,10.20
2019-05-30T14:43:42.990Z,8.10
2019-05-30T14:46:12.459Z,11.00
2019-05-30T14:48:41.301Z,12.70
2019-05-30T14:51:11.085Z,9.07
2019-05-30T14:53:39.789Z,10.43
2019-05-30T14:56:09.146Z,22.43
2019-05-30T14:58:39.545Z,11.30
2019-05-30T15:01:09.558Z,10.33
2019-05-30T15:03:38.307Z,15.80
2019-05-30T15:06:11.538Z,15.73
2019-05-30T15:08:39.062Z,12.03
2019-05-30T15:11:09.500Z,17.07
2019-05-30T15:13:38.197Z,15.20
2019-05-30T15:16:08.801Z,13.73
2019-05-30T15:18:37.498Z,15.97
2019-05-30T15:21:08.247Z,13.60
2019-05-30T15:23:42.846Z,14.80
2019-05-30T15:26:12.595Z,11.77
2019-05-30T15:28:41.526Z,17.90
2019-05-30T15:31:10.485Z,21.70
2019-05-30T15:33:40.462Z,11.67
2019-05-30T15:36:10.718Z,16.90
2019-05-30T15:38:40.809Z,11.73
2019-05-30T15:41:11.349Z,15.87
2019-05-30T15:43:41.279Z,16.30
2019-05-30T15:46:09.962Z,17.47
2019-05-30T15:48:38.680Z,12.30
2019-05-30T15:51:08.387Z,12.97
2019-05-30T15:53:37.051Z,17.97
2019-05-30T15:56:05.742Z,15.33
2019-05-30T15:58:34.401Z,13.30
2019-05-30T16:01:03.073Z,14.93
2019-05-30T16:03:33.061Z,18.00
2019-05-30T16:06:01.738Z,15.60
2019-05-30T16:08:30.405Z,18.27
2019-05-30T16:10:59.376Z,13.60
2019-05-30T16:13:28.013Z,28.67
2019-05-30T16:15:58.259Z,52.80
2019-05-30T16:18:28.021Z,15.00
2019-05-30T16:20:56.716Z,16.57
2019-05-30T16:23:26.848Z,15.47
2019-05-30T16:25:56.867Z,14.63
2019-05-30T16:28:26.777Z,14.47
2019-05-30T16:30:56.671Z,14.00
2019-05-30T16:33:26.816Z,16.20
2019-05-30T16:35:57.094Z,13.90
2019-05-30T16:38:29.014Z,14.97
2019-05-30T16:40:57.692Z,24.73
2019-05-30T16:43:26.643Z,15.77
2019-05-30T16:45:55.286Z,14.33
2019-05-30T16:48:26.704Z,17.47
2019-05-30T16:50:55.667Z,14.57
2019-05-30T16:53:25.894Z,12.80
2019-05-30T16:55:54.953Z,14.30
2019-05-30T16:58:23.848Z,16.87
2019-05-30T17:00:53.712Z,14.17
2019-05-30T17:03:22.366Z,17.53
2019-05-30T17:05:52.283Z,18.30
2019-05-30T17:08:22.187Z,26.40
2019-05-30T17:10:50.895Z,24.20
2019-05-30T17:13:19.674Z,15.80
2019-05-30T17:15:48.286Z,14.80
2019-05-30T17:18:17.998Z,20.77
2019-05-30T17:20:48.551Z,15.60
2019-05-30T17:23:17.215Z,14.40
2019-05-30T17:25:45.880Z,21.77
2019-05-30T17:28:15.972Z,13.77
2019-05-30T17:30:45.987Z,12.43
2019-05-30T17:33:17.695Z,12.60
2019-05-30T17:35:45.693Z,12.23
2019-05-30T17:38:15.414Z,12.30
2019-05-30T17:40:45.641Z,13.67
2019-05-30T17:43:14.712Z,13.90
2019-05-30T17:45:45.193Z,21.30
2019-05-30T17:48:16.735Z,14.97
2019-05-30T17:50:44.298Z,16.13
2019-05-30T17:53:14.393Z,14.70
2019-05-30T17:55:44.702Z,15.80
2019-05-30T17:58:13.368Z,13.77
2019-05-30T18:00:42.038Z,19.23
2019-05-30T18:03:10.713Z,15.27
2019-05-30T18:05:39.383Z,14.53
2019-05-30T18:08:08.124Z,15.73
2019-05-30T18:10:36.847Z,17.17
2019-05-30T18:13:06.847Z,18.23
2019-05-30T18:15:35.529Z,14.80
2019-05-30T18:18:04.213Z,13.90
2019-05-30T18:20:47.807Z,15.10
2019-05-30T18:23:05.352Z,15.17
2019-05-30T18:25:40.317Z,13.30
2019-05-30T18:28:15.290Z,21.33
2019-05-30T18:30:47.350Z,17.23
2019-05-30T18:33:17.400Z,25.97
2019-05-30T18:35:49.301Z,14.60
2019-05-30T18:38:17.942Z,33.70
2019-05-30T18:40:46.619Z,14.40
2019-05-30T18:43:22.670Z,26.00
2019-05-30T18:45:54.384Z,14.90
2019-05-30T18:48:23.357Z,14.80
2019-05-30T18:50:52.109Z,21.93
2019-05-30T18:53:24.252Z,18.20
2019-05-30T18:55:55.504Z,17.60
2019-05-30T18:58:31.208Z,15.13
2019-05-30T19:01:00.997Z,15.10
2019-05-30T19:03:30.706Z,16.27
2019-05-30T19:06:02.907Z,14.13
2019-05-30T19:08:32.067Z,17.10
2019-05-30T19:11:03.410Z,17.37
2019-05-30T19:13:35.404Z,28.43
2019-05-30T19:16:10.115Z,12.83
2019-05-30T19:18:44.743Z,13.03
2019-05-30T19:21:16.142Z,13.83
2019-05-30T19:23:46.450Z,13.63
2019-05-30T19:26:16.186Z,14.60
2019-05-30T19:28:47.887Z,11.10
2019-05-30T19:31:16.547Z,13.70
2019-05-30T19:33:46.382Z,19.97
2019-05-30T19:36:17.794Z,11.03
2019-05-30T19:38:48.273Z,14.83
2019-05-30T19:41:16.936Z,11.47
2019-05-30T19:43:48.411Z,17.17
2019-05-30T19:46:17.347Z,11.07
2019-05-30T19:48:46.050Z,19.60
2019-05-30T19:51:20.959Z,13.97
2019-05-30T19:53:48.692Z,13.83
2019-05-30T19:56:17.416Z,9.87
2019-05-30T19:58:47.244Z,10.47
2019-05-30T20:01:17.227Z,11.37
2019-05-30T20:03:47.130Z,13.77
2019-05-30T20:06:15.875Z,10.80
2019-05-30T20:08:54.503Z,12.57
2019-05-30T20:11:16.574Z,11.80
2019-05-30T20:13:46.410Z,12.43
2019-05-30T20:16:18.052Z,12.53
2019-05-30T20:18:48.083Z,13.93
2019-05-30T20:21:16.764Z,13.60
2019-05-30T20:23:54.554Z,11.97
2019-05-30T20:26:16.872Z,17.13
2019-05-30T20:28:46.910Z,12.20
2019-05-30T20:31:16.699Z,11.33
2019-05-30T20:33:45.405Z,15.27
2019-05-30T20:36:15.336Z,13.03
2019-05-30T20:38:43.968Z,11.97
2019-05-30T20:41:14.142Z,12.83
2019-05-30T20:43:43.045Z,14.50
2019-05-30T20:46:22.782Z,13.17
2019-05-30T20:48:44.702Z,12.33
2019-05-30T20:51:20.880Z,10.80
2019-05-30T20:53:43.358Z,13.40
2019-05-30T20:56:12.565Z,18.17
2019-05-30T20:58:41.810Z,12.33
2019-05-30T21:01:13.207Z,12.23
2019-05-30T21:03:41.893Z,10.83
2019-05-30T21:06:12.897Z,12.50
2019-05-30T21:08:41.721Z,10.90
2019-05-30T21:11:11.605Z,23.67
2019-05-30T21:13:42.316Z,9.63
2019-05-30T21:16:13.807Z,9.33
2019-05-30T21:18:46.009Z,16.87
2019-05-30T21:21:14.786Z,11.40
2019-05-30T21:23:46.653Z,12.10
2019-05-30T21:26:16.627Z,11.30
2019-05-30T21:28:45.456Z,29.27
2019-05-30T21:31:15.429Z,13.57
2019-05-30T21:33:45.727Z,9.47
2019-05-30T21:36:15.817Z,10.23
2019-05-30T21:38:46.113Z,8.37
2019-05-30T21:41:15.011Z,10.77
2019-05-30T21:43:44.866Z,9.77
2019-05-30T21:46:13.563Z,10.70
2019-05-30T21:48:44.828Z,9.90
2019-05-30T21:51:13.852Z,9.67
2019-05-30T21:53:43.492Z,14.67
2019-05-30T21:56:13.001Z,10.80
2019-05-30T21:58:42.185Z,9.80
2019-05-30T22:01:32.882Z,11.03
2019-05-30T22:04:02.089Z,9.80
2019-05-30T22:06:32.153Z,10.60
2019-05-30T22:09:03.783Z,9.03
2019-05-30T22:11:32.602Z,11.33
2019-05-30T22:14:01.510Z,9.40
2019-05-30T22:16:30.180Z,12.50
2019-05-30T22:18:59.089Z,12.20
2019-05-30T22:21:28.022Z,9.50
2019-05-30T22:23:59.801Z,8.90
2019-05-30T22:26:29.619Z,9.20
2019-05-30T22:28:58.416Z,9.70
2019-05-30T22:31:28.592Z,8.73
2019-05-30T22:33:58.604Z,10.80
2019-05-30T22:36:28.599Z,14.77
2019-05-30T22:38:57.277Z,9.33
2019-05-30T22:41:25.963Z,10.53
2019-05-30T22:44:03.972Z,9.40
2019-05-30T22:46:32.635Z,8.47
2019-05-30T22:49:02.398Z,9.70
2019-05-30T22:51:31.085Z,9.20
2019-05-30T22:53:59.752Z,8.33
2019-05-30T22:56:28.679Z,9.60
2019-05-30T22:58:59.164Z,9.13
2019-05-30T23:01:28.147Z,8.10
2019-05-30T23:03:57.579Z,9.93
2019-05-30T23:06:26.974Z,8.47
2019-05-30T23:08:57.206Z,9.53
2019-05-30T23:11:28.877Z,8.43
2019-05-30T23:13:58.830Z,12.20
2019-05-30T23:16:27.464Z,8.23
2019-05-30T23:18:57.475Z,8.40
2019-05-30T23:21:26.415Z,12.33
2019-05-30T23:23:55.310Z,11.40
2019-05-30T23:26:25.224Z,8.83
2019-05-30T23:28:53.890Z,10.30
2019-05-30T23:31:25.273Z,8.63
2019-05-30T23:33:56.463Z,16.17
2019-05-30T23:36:25.418Z,9.77
2019-05-30T23:38:54.927Z,12.10
2019-05-30T23:41:23.578Z,19.73
2019-05-30T23:43:57.941Z,9.20
2019-05-30T23:46:22.600Z,10.63
2019-05-30T23:48:54.118Z,10.27
2019-05-30T23:51:22.825Z,10.20
2019-05-30T23:53:52.055Z,15.60
2019-05-30T23:56:21.977Z,8.97
2019-05-30T23:58:54.698Z,9.80
